Time;durP1;ratioP1;P1;durP2;ratioP2;P2;SDS_P1;SDS_P2;PMS_P1;PMS_P2;Temp;Humidity;BMP_temperature;BMP_pressure;BME280_temperature;BME280_humidity;BME280_pressure;Samples;Min_cycle;Max_cycle;Signal;HPM_P1;HPM_P2
2022/07/01 00:01:31;;;;;;;0.70;0.70;;;15.80;99.90;;;;;;4864047;29;20513;-79
2022/07/01 00:03:58;;;;;;;0.70;0.60;;;15.80;99.90;;;;;;4862411;29;20551;-80
2022/07/01 00:06:56;;;;;;;1.43;0.70;;;15.80;99.90;;;;;;4856276;29;20507;-80
2022/07/01 00:09:25;;;;;;;1.20;0.83;;;15.70;98.70;;;;;;4815142;29;20492;-80
2022/07/01 00:11:52;;;;;;;0.80;0.80;;;15.70;98.10;;;;;;4812273;29;20957;-77
2022/07/01 00:14:19;;;;;;;0.60;0.60;;;15.70;98.30;;;;;;4808581;29;20481;-78
2022/07/01 00:16:46;;;;;;;0.60;0.57;;;15.70;98.60;;;;;;4808257;29;20485;-79
2022/07/01 00:19:12;;;;;;;1.37;0.70;;;15.70;98.90;;;;;;4807701;29;21188;-81
2022/07/01 00:21:39;;;;;;;0.70;0.70;;;15.70;98.40;;;;;;4815103;29;20435;-78
2022/07/01 00:24:07;;;;;;;0.60;0.60;;;15.80;99.20;;;;;;4821414;29;20489;-78
2022/07/01 00:26:35;;;;;;;2.33;0.90;;;15.80;98.60;;;;;;4823183;29;20584;-78
2022/07/01 00:29:02;;;;;;;0.53;0.53;;;15.90;99.10;;;;;;4825259;29;20449;-78
2022/07/01 00:31:29;;;;;;;0.57;0.57;;;15.90;98.20;;;;;;4811559;29;20482;-79
2022/07/01 00:33:59;;;;;;;0.97;0.87;;;15.90;97.30;;;;;;4801057;29;20461;-77
2022/07/01 00:36:26;;;;;;;0.63;0.60;;;15.90;97.30;;;;;;4820761;29;20468;-77
2022/07/01 00:38:53;;;;;;;0.93;0.50;;;15.90;97.20;;;;;;4826809;29;20521;-78
2022/07/01 00:41:21;;;;;;;1.17;0.70;;;15.90;97.10;;;;;;4813778;29;20435;-78
2022/07/01 00:43:50;;;;;;;0.50;0.50;;;15.90;96.40;;;;;;4818560;29;20494;-78
2022/07/01 00:46:18;;;;;;;1.17;0.77;;;15.90;96.70;;;;;;4830203;29;20463;-78
2022/07/01 00:48:49;;;;;;;1.93;0.90;;;16.00;97.50;;;;;;4849452;29;20470;-78
2022/07/01 00:51:19;;;;;;;5.17;0.90;;;16.00;97.90;;;;;;4848501;29;20433;-78
2022/07/01 00:56:29;;;;;;;0.57;0.57;;;15.90;96.50;;;;;;4852934;29;20463;-79
2022/07/01 00:58:59;;;;;;;1.70;0.80;;;15.90;96.70;;;;;;4854169;29;20530;-78
2022/07/01 01:01:27;;;;;;;0.70;0.70;;;15.90;97.30;;;;;;4852090;29;20478;-79
2022/07/01 01:03:54;;;;;;;1.00;0.90;;;15.90;96.80;;;;;;4853597;29;21043;-78
2022/07/01 01:06:21;;;;;;;1.50;0.90;;;16.00;97.10;;;;;;4852602;29;20459;-80
2022/07/01 01:08:48;;;;;;;0.70;0.60;;;16.00;96.10;;;;;;4850120;29;20658;-79
2022/07/01 01:11:16;;;;;;;0.70;0.70;;;16.00;94.50;;;;;;4854491;29;20521;-80
2022/07/01 01:13:46;;;;;;;0.77;0.77;;;16.00;93.80;;;;;;4853214;29;20545;-79
2022/07/01 01:16:26;;;;;;;0.70;0.70;;;16.00;93.80;;;;;;4851703;29;20463;-78
2022/07/01 01:18:57;;;;;;;0.60;0.57;;;16.10;94.60;;;;;;4834746;29;20445;-78
2022/07/01 01:21:31;;;;;;;1.43;0.67;;;16.10;93.30;;;;;;4833518;29;20546;-78
2022/07/01 01:24:02;;;;;;;1.37;0.80;;;16.10;92.90;;;;;;4829845;29;20486;-79
2022/07/01 01:26:29;;;;;;;0.90;0.90;;;16.00;92.30;;;;;;4842743;29;20466;-79
2022/07/01 01:28:56;;;;;;;0.90;0.87;;;16.00;93.30;;;;;;4847133;29;20892;-79
2022/07/01 01:31:33;;;;;;;0.80;0.50;;;16.00;92.80;;;;;;4850586;29;20455;-79
2022/07/01 01:34:00;;;;;;;0.87;0.70;;;16.00;92.40;;;;;;4859714;29;20462;-80
2022/07/01 01:36:31;;;;;;;0.80;0.70;;;16.00;92.90;;;;;;4863200;29;20455;-81
2022/07/01 01:39:01;;;;;;;0.73;0.60;;;15.90;93.50;;;;;;4861115;29;20474;-80
2022/07/01 01:41:28;;;;;;;0.80;0.80;;;15.90;94.00;;;;;;4853381;29;20826;-80
2022/07/01 01:43:58;;;;;;;0.73;0.70;;;15.90;94.50;;;;;;4853028;29;20607;-80
2022/07/01 01:46:25;;;;;;;1.43;0.80;;;15.90;94.30;;;;;;4853078;29;20487;-80
2022/07/01 01:48:52;;;;;;;1.33;0.70;;;16.00;95.30;;;;;;4852218;29;20494;-80
2022/07/01 01:51:24;;;;;;;1.27;0.70;;;16.00;93.70;;;;;;4852608;29;20459;-81
2022/07/01 01:53:52;;;;;;;1.23;0.60;;;16.00;92.60;;;;;;4853082;29;20852;-80
2022/07/01 01:56:21;;;;;;;0.90;0.90;;;15.90;93.20;;;;;;4858940;29;20558;-78
2022/07/01 01:58:51;;;;;;;3.63;1.00;;;15.90;93.40;;;;;;4856518;29;20552;-79
2022/07/01 02:01:22;;;;;;;1.67;0.70;;;15.90;93.10;;;;;;4854522;29;20451;-79
2022/07/01 02:04:00;;;;;;;0.87;0.50;;;15.80;92.40;;;;;;4853425;29;20518;-80
2022/07/01 02:06:29;;;;;;;0.50;0.50;;;15.70;91.60;;;;;;4851543;29;20459;-79
2022/07/01 02:08:57;;;;;;;0.83;0.60;;;15.60;91.30;;;;;;4851974;29;21041;-79
2022/07/01 02:11:24;;;;;;;1.03;0.73;;;15.60;92.20;;;;;;4851052;29;20467;-79
2022/07/01 02:13:51;;;;;;;0.80;0.80;;;15.70;92.10;;;;;;4851038;29;20848;-79
2022/07/01 02:16:18;;;;;;;1.00;0.90;;;15.60;91.80;;;;;;4852165;29;20477;-80
2022/07/01 02:18:45;;;;;;;0.63;0.63;;;15.70;91.90;;;;;;4852598;29;20443;-79
2022/07/01 02:21:12;;;;;;;0.80;0.70;;;15.70;91.80;;;;;;4852879;29;20469;-79
2022/07/01 02:23:42;;;;;;;3.43;0.97;;;15.70;92.20;;;;;;4852011;29;20489;-78
2022/07/01 02:26:10;;;;;;;0.90;0.90;;;15.80;91.90;;;;;;4852490;29;20481;-77
2022/07/01 02:28:37;;;;;;;2.03;0.90;;;15.70;91.80;;;;;;4860149;29;20547;-77
2022/07/01 02:31:04;;;;;;;1.07;0.80;;;15.80;91.80;;;;;;4849916;29;20425;-78
2022/07/01 02:33:32;;;;;;;3.73;1.07;;;15.80;91.70;;;;;;4848999;29;20521;-78
2022/07/01 02:36:02;;;;;;;0.77;0.77;;;15.80;91.80;;;;;;4849863;29;20832;-78
2022/07/01 02:38:31;;;;;;;0.90;0.90;;;15.90;91.90;;;;;;4848011;29;21067;-78
2022/07/01 02:40:58;;;;;;;0.67;0.67;;;15.90;90.70;;;;;;4848170;29;20467;-78
2022/07/01 02:43:27;;;;;;;3.70;0.80;;;15.90;88.60;;;;;;4848494;29;20454;-79
2022/07/01 02:45:54;;;;;;;2.00;0.83;;;15.80;87.00;;;;;;4847217;29;20948;-77
2022/07/01 02:48:21;;;;;;;1.33;0.90;;;15.80;88.00;;;;;;4847028;29;20487;-78
2022/07/01 02:50:51;;;;;;;0.77;0.77;;;15.90;89.20;;;;;;4848421;29;20454;-79
2022/07/01 02:53:17;;;;;;;1.20;1.00;;;15.90;88.60;;;;;;4854159;29;20465;-77
2022/07/01 02:55:44;;;;;;;1.43;1.00;;;15.80;88.60;;;;;;4858766;29;20476;-78
2022/07/01 02:58:11;;;;;;;1.27;1.00;;;15.80;89.30;;;;;;4855056;29;20549;-79
2022/07/01 03:00:40;;;;;;;1.00;0.90;;;15.80;90.00;;;;;;4860509;29;20549;-78
2022/07/01 03:03:09;;;;;;;0.90;0.90;;;15.80;88.40;;;;;;4862737;29;20503;-79
2022/07/01 03:05:36;;;;;;;0.63;0.60;;;15.80;90.60;;;;;;4863275;29;20467;-80
2022/07/01 03:08:04;;;;;;;1.20;0.90;;;15.90;90.50;;;;;;4863940;29;20493;-79
2022/07/01 03:10:31;;;;;;;1.07;1.07;;;15.90;90.60;;;;;;4864011;29;20451;-80
2022/07/01 03:12:59;;;;;;;1.73;1.20;;;16.00;90.20;;;;;;4863463;29;20500;-80
2022/07/01 03:15:26;;;;;;;1.23;1.13;;;15.90;88.90;;;;;;4863070;29;20812;-80
2022/07/01 03:18:11;;;;;;;1.10;1.10;;;15.80;87.50;;;;;;4852998;29;20429;-79
2022/07/01 03:20:38;;;;;;;1.40;1.30;;;15.80;87.70;;;;;;4854022;29;20478;-80
2022/07/01 03:23:05;;;;;;;1.10;1.10;;;15.70;89.90;;;;;;4851886;29;20550;-80
2022/07/01 03:25:32;;;;;;;1.40;1.30;;;15.80;90.00;;;;;;4856475;29;20510;-78
2022/07/01 03:28:03;;;;;;;1.37;1.27;;;15.80;89.00;;;;;;4849258;29;20857;-80
2022/07/01 03:30:41;;;;;;;1.53;1.43;;;15.80;87.20;;;;;;4855095;29;20507;-80
2022/07/01 03:33:12;;;;;;;1.77;1.40;;;15.80;88.70;;;;;;4853126;29;20578;-79
2022/07/01 03:35:40;;;;;;;1.37;1.03;;;15.80;85.90;;;;;;4851073;29;20486;-80
2022/07/01 03:38:07;;;;;;;1.43;1.30;;;15.80;85.80;;;;;;4854054;29;20494;-80
2022/07/01 03:40:37;;;;;;;1.33;1.23;;;15.80;85.80;;;;;;4851623;29;20463;-78
2022/07/01 03:43:08;;;;;;;2.00;1.27;;;15.80;85.80;;;;;;4856026;29;20570;-79
2022/07/01 03:45:36;;;;;;;2.40;1.50;;;15.80;84.30;;;;;;4853125;29;20466;-80
2022/07/01 03:48:03;;;;;;;1.10;1.10;;;15.80;85.80;;;;;;4857458;29;20509;-80
2022/07/01 03:50:35;;;;;;;1.47;1.13;;;15.90;85.90;;;;;;4857684;29;20557;-79
2022/07/01 03:55:46;;;;;;;1.20;1.20;;;15.80;83.70;;;;;;4847900;29;20507;-80
2022/07/01 03:58:20;;;;;;;4.73;1.70;;;15.80;83.60;;;;;;4860914;29;20458;-80
2022/07/01 04:00:47;;;;;;;1.60;1.50;;;15.70;83.80;;;;;;4836703;29;20460;-79
2022/07/01 04:03:17;;;;;;;2.33;1.90;;;15.70;83.50;;;;;;4831345;29;20526;-78
2022/07/01 04:05:58;;;;;;;1.57;1.20;;;15.70;84.70;;;;;;4848346;29;20835;-80
2022/07/01 04:08:25;;;;;;;3.67;1.20;;;15.80;85.80;;;;;;4849956;29;20477;-79
2022/07/01 04:10:55;;;;;;;2.63;1.30;;;15.80;85.50;;;;;;4854266;29;20549;-79
2022/07/01 04:13:22;;;;;;;2.30;1.20;;;15.80;85.80;;;;;;4849070;29;20888;-77
2022/07/01 04:15:49;;;;;;;0.93;0.90;;;15.80;86.90;;;;;;4848645;29;20509;-79
2022/07/01 04:18:17;;;;;;;1.10;1.00;;;15.80;88.40;;;;;;4853579;29;20473;-78
2022/07/01 04:22:32;;;;;;;2.27;1.10;;;15.80;88.30;;;;;;4852227;29;20474;-79
2022/07/01 04:23:33;;;;;;;3.23;1.20;;;15.80;87.40;;;;;;4858389;29;20566;-78
2022/07/01 04:26:00;;;;;;;2.30;1.00;;;15.90;86.90;;;;;;4864528;29;20494;-78
2022/07/01 04:28:27;;;;;;;1.93;0.73;;;15.90;86.70;;;;;;4864578;29;20558;-77
2022/07/01 04:30:54;;;;;;;1.83;1.10;;;15.80;85.80;;;;;;4858286;29;20472;-80
2022/07/01 04:33:21;;;;;;;1.33;1.00;;;15.80;86.70;;;;;;4848091;29;20570;-80
2022/07/01 04:35:50;;;;;;;1.03;0.93;;;15.80;86.30;;;;;;4848973;29;20499;-79
2022/07/01 04:38:16;;;;;;;1.73;0.97;;;15.90;87.90;;;;;;4849471;29;21017;-79
2022/07/01 04:41:58;;;;;;;2.10;0.93;;;15.90;90.10;;;;;;4854485;29;20531;-80
2022/07/01 04:43:33;;;;;;;0.87;0.87;;;15.90;90.90;;;;;;4858670;29;20465;-80
2022/07/01 04:46:00;;;;;;;3.73;0.80;;;15.80;91.80;;;;;;4852554;29;20489;-80
2022/07/01 04:48:27;;;;;;;1.60;1.10;;;15.60;92.10;;;;;;4849356;29;20518;-80
2022/07/01 04:50:55;;;;;;;1.42;1.05;;;15.70;94.30;;;;;;4849960;29;20459;-79
2022/07/01 04:53:25;;;;;;;1.67;0.90;;;15.70;93.60;;;;;;4851192;29;20272;-79
2022/07/01 04:55:52;;;;;;;0.90;0.90;;;15.70;93.50;;;;;;4831284;29;20495;-80
2022/07/01 04:58:19;;;;;;;1.50;1.02;;;15.70;92.20;;;;;;4839018;29;20471;-80
2022/07/01 05:00:48;;;;;;;2.23;1.43;;;15.70;91.80;;;;;;4860878;29;20237;-80
2022/07/01 05:12:05;;;;;;;2.40;1.10;;;15.70;92.50;;;;;;5336004;23;20279;-80
2022/07/01 05:14:34;;;;;;;1.80;1.33;;;15.80;92.50;;;;;;4882703;29;20421;-79
2022/07/01 05:17:01;;;;;;;1.70;1.50;;;15.80;91.60;;;;;;4881095;29;20470;-79
2022/07/01 05:22:16;;;;;;;1.10;1.10;;;15.80;92.40;;;;;;4879203;29;20418;-78
2022/07/01 05:24:43;;;;;;;2.10;1.90;;;15.80;91.80;;;;;;4890000;23;20512;-75
2022/07/01 05:27:09;;;;;;;3.90;1.67;;;15.80;92.10;;;;;;4879050;29;20449;-75
2022/07/01 05:29:36;;;;;;;1.80;1.40;;;15.70;90.70;;;;;;4880380;29;20492;-74
2022/07/01 05:32:03;;;;;;;1.80;1.70;;;15.60;90.80;;;;;;4883290;29;20440;-74
2022/07/01 05:34:30;;;;;;;1.87;1.70;;;15.50;91.80;;;;;;4863609;29;20487;-74
2022/07/01 05:36:57;;;;;;;1.60;1.50;;;15.50;92.10;;;;;;4846481;29;20467;-74
2022/07/01 05:39:26;;;;;;;1.90;1.80;;;15.60;92.70;;;;;;4846369;29;20462;-74
2022/07/01 05:41:53;;;;;;;1.70;1.60;;;15.60;92.40;;;;;;4846231;29;20815;-74
2022/07/01 05:44:21;;;;;;;1.63;1.53;;;15.80;93.60;;;;;;4847135;29;20457;-74
2022/07/01 05:46:48;;;;;;;2.87;2.10;;;15.80;92.60;;;;;;4845963;29;20497;-74
2022/07/01 05:49:14;;;;;;;2.37;1.70;;;15.70;91.80;;;;;;4846409;29;20494;-74
2022/07/01 05:51:41;;;;;;;2.90;1.70;;;15.80;92.40;;;;;;4849024;29;20437;-74
2022/07/01 05:54:08;;;;;;;2.83;1.93;;;15.80;93.20;;;;;;4846460;29;20465;-74
2022/07/01 05:56:36;;;;;;;2.07;1.83;;;15.70;93.00;;;;;;4845456;29;20550;-74
2022/07/01 05:59:03;;;;;;;2.43;1.80;;;15.60;93.10;;;;;;4845224;29;20551;-75
2022/07/01 06:01:30;;;;;;;2.20;2.00;;;15.60;93.10;;;;;;4845139;29;20481;-75
2022/07/01 06:03:57;;;;;;;1.90;1.80;;;15.50;93.60;;;;;;4846104;29;20532;-75
2022/07/01 06:06:24;;;;;;;2.30;2.13;;;15.50;93.60;;;;;;4847134;29;20463;-73
2022/07/01 06:08:50;;;;;;;3.22;2.42;;;15.50;94.60;;;;;;4856152;29;20570;-75
2022/07/01 06:11:17;;;;;;;3.80;2.90;;;15.50;94.00;;;;;;4858893;29;20220;-75
2022/07/01 06:13:52;;;;;;;3.33;2.20;;;15.50;94.40;;;;;;4861493;29;20444;-76
2022/07/01 06:16:19;;;;;;;2.80;2.40;;;15.40;94.80;;;;;;4858785;29;20463;-76
2022/07/01 06:18:46;;;;;;;3.10;2.10;;;15.60;96.50;;;;;;4866103;29;20509;-76
2022/07/01 06:21:14;;;;;;;2.87;2.43;;;15.60;96.00;;;;;;4851725;29;20466;-77
2022/07/01 06:23:41;;;;;;;2.67;2.33;;;15.70;95.90;;;;;;4857221;29;20434;-78
2022/07/01 06:26:08;;;;;;;3.27;2.50;;;15.80;96.70;;;;;;4855306;29;20512;-76
2022/07/01 06:28:35;;;;;;;3.40;2.97;;;15.90;96.30;;;;;;4869553;29;20563;-78
2022/07/01 06:31:04;;;;;;;4.20;2.93;;;15.90;95.70;;;;;;4854974;29;20518;-76
2022/07/01 06:33:31;;;;;;;3.70;2.93;;;16.00;93.10;;;;;;4847128;29;20455;-76
2022/07/01 06:35:58;;;;;;;2.83;2.63;;;16.10;93.60;;;;;;4845091;29;20483;-76
2022/07/01 06:38:26;;;;;;;7.03;3.00;;;16.20;92.60;;;;;;4854010;29;20891;-76
2022/07/01 06:43:34;;;;;;;3.83;2.97;;;16.50;90.30;;;;;;4845777;29;20444;-76
2022/07/01 06:46:03;;;;;;;5.03;2.83;;;16.70;90.40;;;;;;4845224;29;20474;-75
2022/07/01 06:48:30;;;;;;;3.63;2.43;;;16.70;90.30;;;;;;4845691;29;20883;-76
2022/07/01 06:50:56;;;;;;;2.83;2.53;;;16.80;86.80;;;;;;4846655;29;20465;-75
2022/07/01 06:53:23;;;;;;;4.07;3.47;;;16.70;85.30;;;;;;4845752;29;20493;-76
2022/07/01 06:55:50;;;;;;;4.23;2.53;;;16.50;85.00;;;;;;4845524;29;20530;-75
2022/07/01 06:58:17;;;;;;;5.13;3.33;;;16.50;87.60;;;;;;4845831;29;20486;-77
2022/07/01 07:00:44;;;;;;;5.53;2.60;;;16.40;90.20;;;;;;4845055;29;20499;-76
2022/07/01 07:03:12;;;;;;;5.00;3.00;;;16.40;90.70;;;;;;4847015;29;20553;-77
2022/07/01 07:05:39;;;;;;;6.23;2.40;;;16.40;90.50;;;;;;4846227;29;20480;-75
2022/07/01 07:08:06;;;;;;;4.40;3.47;;;16.30;91.00;;;;;;4853559;29;20462;-76
2022/07/01 07:10:33;;;;;;;2.93;2.53;;;16.30;92.30;;;;;;4865774;29;20526;-76
2022/07/01 07:13:00;;;;;;;4.47;2.60;;;16.30;90.40;;;;;;4852784;29;20467;-75
2022/07/01 07:15:26;;;;;;;4.63;2.40;;;16.30;90.10;;;;;;4861017;29;20529;-75
2022/07/01 07:17:54;;;;;;;2.53;2.33;;;16.30;86.20;;;;;;4863855;29;20493;-77
2022/07/01 07:20:22;;;;;;;3.20;2.87;;;16.20;88.10;;;;;;4864221;29;20490;-76
2022/07/01 07:22:49;;;;;;;3.00;2.63;;;16.20;90.00;;;;;;4861596;29;20473;-76
2022/07/01 07:25:16;;;;;;;3.10;2.80;;;16.10;90.60;;;;;;4853308;29;20510;-76
2022/07/01 07:27:45;;;;;;;2.93;2.63;;;16.10;91.10;;;;;;4848179;29;20466;-76
2022/07/01 07:30:13;;;;;;;3.60;2.90;;;16.10;92.10;;;;;;4839308;29;20836;-76
2022/07/01 07:32:40;;;;;;;5.13;2.67;;;16.20;93.00;;;;;;4845506;29;21067;-75
2022/07/01 07:35:08;;;;;;;4.07;2.40;;;16.50;92.80;;;;;;4843799;29;20479;-76
2022/07/01 07:37:36;;;;;;;3.40;2.50;;;16.50;90.30;;;;;;4843419;29;20886;-76
2022/07/01 07:40:06;;;;;;;2.67;2.40;;;16.70;90.00;;;;;;4828841;29;20462;-76
2022/07/01 07:42:33;;;;;;;3.60;2.50;;;17.00;90.30;;;;;;4842850;29;20474;-75
2022/07/01 07:45:01;;;;;;;4.60;2.30;;;17.20;86.70;;;;;;4850588;29;20603;-76
2022/07/01 07:47:28;;;;;;;4.27;2.13;;;16.90;86.80;;;;;;4848177;29;20494;-76
2022/07/01 07:49:55;;;;;;;3.60;2.10;;;17.10;87.00;;;;;;4845653;29;20543;-74
2022/07/01 07:52:22;;;;;;;2.90;2.10;;;17.10;84.90;;;;;;4851261;29;20486;-76
2022/07/01 07:54:50;;;;;;;3.17;2.50;;;17.00;82.80;;;;;;4843619;29;20498;-76
2022/07/01 07:57:17;;;;;;;2.77;2.50;;;16.90;84.50;;;;;;4844639;29;20463;-75
2022/07/01 07:59:44;;;;;;;4.70;2.97;;;16.70;87.20;;;;;;4840550;29;20458;-75
2022/07/01 08:02:11;;;;;;;3.00;2.50;;;16.60;90.10;;;;;;4843571;29;20434;-75
2022/07/01 08:04:38;;;;;;;5.93;2.40;;;16.60;91.00;;;;;;4842160;29;20517;-76
2022/07/01 08:07:05;;;;;;;2.90;1.70;;;16.50;90.80;;;;;;4844003;29;20491;-76
2022/07/01 08:09:34;;;;;;;2.50;2.30;;;16.40;90.40;;;;;;4843852;29;20499;-76
2022/07/01 08:12:02;;;;;;;3.60;2.50;;;16.20;91.30;;;;;;4843720;29;20467;-76
2022/07/01 08:14:29;;;;;;;4.90;2.37;;;16.10;92.00;;;;;;4844790;29;20518;-75
2022/07/01 08:16:56;;;;;;;2.20;2.00;;;16.10;93.00;;;;;;4844588;29;20821;-75
2022/07/01 08:19:23;;;;;;;3.07;2.20;;;16.10;93.30;;;;;;4844619;29;20463;-76
2022/07/01 08:21:50;;;;;;;2.60;2.40;;;16.10;94.60;;;;;;4843984;29;20442;-76
2022/07/01 08:24:17;;;;;;;5.33;2.60;;;16.10;94.60;;;;;;4845181;29;20570;-76
2022/07/01 08:26:46;;;;;;;3.20;2.30;;;16.10;94.70;;;;;;4843505;29;20455;-74
2022/07/01 08:29:14;;;;;;;4.70;2.50;;;16.30;94.00;;;;;;4843449;29;20490;-75
2022/07/01 08:31:41;;;;;;;2.77;2.10;;;16.40;94.20;;;;;;4842111;29;20475;-77
2022/07/01 08:34:09;;;;;;;3.53;2.10;;;16.40;91.20;;;;;;4841720;29;20473;-74
2022/07/01 08:36:36;;;;;;;2.13;2.03;;;16.40;89.00;;;;;;4842345;29;20470;-76
2022/07/01 08:39:04;;;;;;;2.57;2.37;;;16.50;87.60;;;;;;4842105;29;20459;-74
2022/07/01 08:41:31;;;;;;;2.17;1.97;;;16.60;89.00;;;;;;4843018;29;20489;-76
2022/07/01 08:43:58;;;;;;;5.10;2.40;;;16.70;88.40;;;;;;4844310;29;20469;-74
2022/07/01 08:46:27;;;;;;;6.40;4.03;;;17.00;90.40;;;;;;4827019;29;20464;-74
2022/07/01 08:48:54;;;;;;;5.00;2.20;;;17.40;87.30;;;;;;4849029;29;20522;-74
2022/07/01 08:51:21;;;;;;;1.80;1.70;;;17.80;80.30;;;;;;4831231;29;20464;-73
2022/07/01 08:53:48;;;;;;;3.80;2.40;;;18.10;77.20;;;;;;4827072;29;20515;-74
2022/07/01 08:58:59;;;;;;;2.40;2.20;;;18.40;75.20;;;;;;4844893;29;20830;-76
2022/07/01 09:01:28;;;;;;;2.43;2.10;;;18.50;72.20;;;;;;4844011;29;20553;-74
2022/07/01 09:03:56;;;;;;;3.17;1.80;;;18.40;71.30;;;;;;4845645;29;20459;-74
2022/07/01 09:06:28;;;;;;;6.47;1.90;;;18.60;71.60;;;;;;4853491;29;20446;-74
2022/07/01 09:08:56;;;;;;;4.60;1.67;;;18.70;66.60;;;;;;4854506;29;20810;-75
2022/07/01 09:11:24;;;;;;;1.57;1.47;;;18.30;63.90;;;;;;4847181;29;20955;-74
2022/07/01 09:14:07;;;;;;;2.57;1.60;;;18.10;66.00;;;;;;4845365;29;20453;-75
2022/07/01 09:16:41;;;;;;;1.70;1.60;;;18.40;66.30;;;;;;4827387;29;20443;-74
2022/07/01 09:19:08;;;;;;;2.10;1.90;;;18.70;65.30;;;;;;4829502;29;20459;-74
2022/07/01 09:21:35;;;;;;;1.70;1.60;;;19.10;61.40;;;;;;4845206;29;20955;-73
2022/07/01 09:24:05;;;;;;;2.50;1.50;;;19.40;59.30;;;;;;4845933;29;20445;-75
2022/07/01 09:26:32;;;;;;;1.70;1.60;;;19.70;58.30;;;;;;4846929;29;20451;-74
2022/07/01 09:29:00;;;;;;;2.90;2.37;;;20.00;54.00;;;;;;4853781;29;20475;-73
2022/07/01 09:31:33;;;;;;;2.57;1.60;;;19.90;55.40;;;;;;4851628;29;20463;-74
2022/07/01 09:34:06;;;;;;;1.60;1.50;;;20.00;54.70;;;;;;4845253;29;20932;-74
2022/07/01 09:36:33;;;;;;;1.47;1.37;;;20.30;53.40;;;;;;4846669;29;20538;-74
2022/07/01 09:39:04;;;;;;;1.40;1.30;;;20.30;53.00;;;;;;4845153;29;20500;-75
2022/07/01 09:41:37;;;;;;;1.67;1.57;;;20.20;51.80;;;;;;4847818;29;21035;-75
2022/07/01 09:44:09;;;;;;;1.60;1.50;;;19.80;53.60;;;;;;4848590;29;20442;-75
2022/07/01 09:46:37;;;;;;;1.60;1.50;;;20.00;51.80;;;;;;4848709;29;20466;-74
2022/07/01 09:49:05;;;;;;;2.63;1.53;;;20.00;48.90;;;;;;4848145;29;20442;-75
2022/07/01 09:51:32;;;;;;;2.60;1.40;;;19.90;50.50;;;;;;4846361;29;20470;-74
2022/07/01 09:53:59;;;;;;;2.90;1.70;;;19.60;50.50;;;;;;4847334;29;20975;-74
2022/07/01 09:56:28;;;;;;;1.50;1.40;;;19.50;50.40;;;;;;4844091;29;20501;-73
2022/07/01 09:58:55;;;;;;;1.60;1.07;;;19.30;50.60;;;;;;4854722;29;20470;-74
2022/07/01 10:01:24;;;;;;;2.20;1.33;;;19.70;51.80;;;;;;4843422;29;20486;-74
2022/07/01 10:03:51;;;;;;;1.10;1.00;;;20.20;49.10;;;;;;4845687;29;20437;-73
2022/07/01 10:06:38;;;;;;;1.10;1.10;;;20.70;46.10;;;;;;4851238;29;20520;-73
2022/07/01 10:09:21;;;;;;;2.10;1.47;;;20.80;44.70;;;;;;4845112;29;20463;-76
2022/07/01 10:12:09;;;;;;;1.20;1.10;;;21.00;43.70;;;;;;4841654;29;20963;-75
2022/07/01 10:14:39;;;;;;;3.90;1.00;;;21.20;42.90;;;;;;4841938;29;20990;-74
2022/07/01 10:17:06;;;;;;;2.60;1.40;;;21.20;43.10;;;;;;4841879;29;20948;-75
2022/07/01 10:19:33;;;;;;;2.60;1.30;;;21.20;43.60;;;;;;4843778;29;20473;-74
2022/07/01 10:22:25;;;;;;;2.30;1.50;;;21.40;43.20;;;;;;4843773;29;20494;-75
2022/07/01 10:24:52;;;;;;;3.47;1.10;;;21.50;41.30;;;;;;4842376;29;20571;-74
2022/07/01 10:27:21;;;;;;;1.33;1.20;;;21.50;42.50;;;;;;4843552;29;20478;-74
2022/07/01 10:29:48;;;;;;;3.10;1.20;;;21.50;41.70;;;;;;4843164;29;20970;-74
2022/07/01 10:32:27;;;;;;;2.60;1.30;;;21.50;42.80;;;;;;4843247;29;20475;-74
2022/07/01 10:35:05;;;;;;;1.50;1.20;;;21.70;41.40;;;;;;4843372;29;20524;-73
2022/07/01 10:37:33;;;;;;;1.77;1.10;;;21.60;40.90;;;;;;4843765;29;20458;-75
2022/07/01 10:40:02;;;;;;;1.23;1.13;;;21.60;41.90;;;;;;4843792;29;20467;-74
2022/07/01 10:42:30;;;;;;;2.47;1.60;;;21.70;41.70;;;;;;4840937;29;20459;-74
2022/07/01 10:45:05;;;;;;;2.40;1.27;;;21.90;40.60;;;;;;4842113;29;20490;-73
2022/07/01 10:47:33;;;;;;;1.53;1.27;;;21.50;40.20;;;;;;4843459;29;20443;-74
2022/07/01 10:50:04;;;;;;;2.80;1.30;;;21.40;41.20;;;;;;4842944;29;21003;-74
2022/07/01 10:52:33;;;;;;;1.47;1.10;;;21.30;42.90;;;;;;4842250;29;20485;-75
2022/07/01 10:55:02;;;;;;;1.30;1.20;;;21.40;43.50;;;;;;4842715;29;20498;-74
2022/07/01 10:57:42;;;;;;;1.30;1.20;;;21.50;43.10;;;;;;4843234;29;20463;-75
2022/07/01 11:00:33;;;;;;;3.40;1.27;;;21.70;43.10;;;;;;4842923;29;20457;-76
2022/07/01 11:03:17;;;;;;;2.83;1.50;;;21.90;40.60;;;;;;4847463;29;20459;-76
2022/07/01 11:05:47;;;;;;;2.43;1.30;;;22.10;40.90;;;;;;4844070;29;20999;-76
2022/07/01 11:08:15;;;;;;;1.70;0.90;;;21.90;40.60;;;;;;4843417;29;20467;-76
2022/07/01 11:10:42;;;;;;;2.37;1.20;;;21.80;40.50;;;;;;4844005;29;20590;-75
2022/07/01 11:13:14;;;;;;;2.50;1.20;;;21.90;35.70;;;;;;4844156;29;20467;-74
2022/07/01 11:15:41;;;;;;;1.30;1.20;;;21.50;38.00;;;;;;4842307;29;20526;-74
2022/07/01 11:18:08;;;;;;;2.27;1.00;;;21.50;38.20;;;;;;4842869;29;20473;-74
2022/07/01 11:20:35;;;;;;;1.77;0.80;;;21.50;38.20;;;;;;4841812;29;20575;-73
2022/07/01 11:23:02;;;;;;;1.30;1.10;;;21.50;37.50;;;;;;4841798;29;20459;-75
2022/07/01 11:25:31;;;;;;;1.03;1.03;;;21.40;35.60;;;;;;4842161;29;20490;-74
2022/07/01 11:27:58;;;;;;;1.70;1.60;;;21.10;37.80;;;;;;4843200;29;20473;-75
2022/07/01 11:30:25;;;;;;;1.47;1.03;;;21.30;37.90;;;;;;4846052;29;20473;-75
2022/07/01 11:32:54;;;;;;;1.37;1.10;;;21.50;36.70;;;;;;4848161;29;20469;-74
2022/07/01 11:40:57;;;;;;;1.90;1.37;;;22.00;35.10;;;;;;4846846;29;20490;-76
2022/07/01 11:43:27;;;;;;;3.83;0.70;;;22.30;35.60;;;;;;4847967;29;20459;-74
2022/07/01 11:45:55;;;;;;;1.10;1.00;;;22.70;34.90;;;;;;4847313;29;20954;-73
2022/07/01 11:48:39;;;;;;;1.20;0.77;;;22.90;34.10;;;;;;4849368;29;20464;-74
2022/07/01 11:51:09;;;;;;;1.63;0.97;;;23.00;31.30;;;;;;4855082;29;20617;-74
2022/07/01 11:53:36;;;;;;;1.23;1.00;;;22.70;31.00;;;;;;4852953;29;20443;-75
2022/07/01 11:56:06;;;;;;;2.33;1.00;;;22.70;32.00;;;;;;4846003;29;20490;-75
2022/07/01 11:58:51;;;;;;;1.10;0.90;;;23.00;32.00;;;;;;4845086;29;20465;-75
2022/07/01 12:01:26;;;;;;;0.80;0.80;;;23.10;34.00;;;;;;4848373;29;20461;-75
2022/07/01 12:03:54;;;;;;;1.93;1.20;;;23.20;32.10;;;;;;4860314;29;20458;-75
2022/07/01 12:06:23;;;;;;;2.13;1.20;;;23.30;33.40;;;;;;4862115;29;20464;-76
2022/07/01 12:08:50;;;;;;;1.63;1.00;;;23.40;33.90;;;;;;4863209;29;20502;-76
2022/07/01 12:11:21;;;;;;;1.63;1.20;;;23.50;32.90;;;;;;4860629;29;20480;-75
2022/07/01 12:13:49;;;;;;;0.90;0.90;;;23.80;33.30;;;;;;4849030;29;20441;-75
2022/07/01 12:16:16;;;;;;;0.80;0.80;;;24.20;33.10;;;;;;4842793;29;20487;-75
2022/07/01 12:18:54;;;;;;;1.23;1.00;;;24.30;32.50;;;;;;4842268;29;20441;-76
2022/07/01 12:21:21;;;;;;;1.50;1.10;;;24.30;32.50;;;;;;4843098;29;20482;-75
2022/07/01 12:24:13;;;;;;;1.30;1.20;;;24.20;32.40;;;;;;4843534;29;20960;-76
2022/07/01 12:27:04;;;;;;;3.83;1.20;;;24.40;32.60;;;;;;4835631;29;20562;-77
2022/07/01 12:29:48;;;;;;;1.60;0.97;;;24.60;32.80;;;;;;4846290;29;21470;-76
2022/07/01 12:32:17;;;;;;;0.90;0.90;;;24.60;32.80;;;;;;4846422;29;20465;-76
2022/07/01 12:34:46;;;;;;;1.03;0.93;;;24.80;31.60;;;;;;4848385;29;20987;-75
2022/07/01 12:37:17;;;;;;;1.20;1.10;;;24.80;30.00;;;;;;4847236;29;21010;-77
2022/07/01 12:39:46;;;;;;;2.30;1.03;;;24.60;30.10;;;;;;4852612;29;20563;-77
2022/07/01 12:42:28;;;;;;;1.10;1.00;;;24.60;30.80;;;;;;4852681;29;20967;-77
2022/07/01 12:44:58;;;;;;;1.20;1.10;;;24.40;31.30;;;;;;4856380;29;20455;-77
2022/07/01 12:47:29;;;;;;;4.13;1.20;;;24.20;31.00;;;;;;4862904;29;20451;-77
2022/07/01 12:50:27;;;;;;;1.83;1.33;;;24.20;30.30;;;;;;4861952;29;20448;-78
2022/07/01 12:53:03;;;;;;;1.33;0.80;;;24.40;29.90;;;;;;4816251;29;20937;-78
2022/07/01 12:55:35;;;;;;;1.20;1.00;;;24.30;30.10;;;;;;4843582;29;20576;-79
2022/07/01 12:58:05;;;;;;;1.17;0.97;;;24.10;30.50;;;;;;4850844;29;20994;-78
2022/07/01 13:00:33;;;;;;;2.23;1.07;;;23.80;30.50;;;;;;4852125;29;20425;-78
2022/07/01 13:03:01;;;;;;;1.97;1.30;;;22.70;31.00;;;;;;4851916;29;20442;-76
2022/07/01 13:05:29;;;;;;;1.20;1.10;;;22.80;31.20;;;;;;4850971;29;20777;-78
2022/07/01 13:07:56;;;;;;;2.00;1.20;;;23.00;30.80;;;;;;4855923;29;20649;-79
2022/07/01 13:10:23;;;;;;;1.20;1.10;;;22.90;32.60;;;;;;4851672;29;20947;-78
2022/07/01 13:12:50;;;;;;;1.60;1.27;;;23.40;31.60;;;;;;4851113;29;21018;-78
2022/07/01 13:15:19;;;;;;;4.20;1.20;;;23.60;31.80;;;;;;4851497;29;20486;-77
2022/07/01 13:17:47;;;;;;;1.50;1.30;;;23.60;31.80;;;;;;4852532;29;20463;-79
2022/07/01 13:20:15;;;;;;;1.13;1.03;;;23.60;31.90;;;;;;4855309;29;20467;-80
2022/07/01 13:22:43;;;;;;;1.30;1.00;;;23.50;31.70;;;;;;4857317;29;20476;-79
2022/07/01 13:25:11;;;;;;;1.30;1.20;;;23.40;31.60;;;;;;4852372;29;20494;-77
2022/07/01 13:27:39;;;;;;;1.40;1.17;;;24.00;30.80;;;;;;4849294;29;20444;-78